Search for airport 
image banner adimage banner adimage banner ad
image banner ad

0IA1 - St Anthony Rgnl Hospital

Located in Carroll, United States

ICAO - 0IA1, IATA -

Data provided by Airmate  

General information

Coordinates: N42°3'21" W94°52'2"
Elevation is 1300 feet MSL.
Magnetic variation is 05° East
View others Airports in Iowa

Operational data

Special qualification required
Current time UTC:
Current local time:
Weather at : KCIN - Arthur N Neu ( 7 km )
METAR: KCIN 150835Z AUTO 00000KT 7SM CLR 14/12 A3010 RMK AO2
View NOTAMs / SUP AIP / TFR affecting this airport [VIEW]
Communications frequencies: [VIEW]

Runways:

Airport contact information

Address: Carroll United States

Satellite view of 0IA1